Time;durP1;ratioP1;P1;durP2;ratioP2;P2;SDS_P1;SDS_P2;PMS_P1;PMS_P2;Temp;Humidity;BMP_temperature;BMP_pressure;BME280_temperature;BME280_humidity;BME280_pressure;Samples;Min_cycle;Max_cycle;Signal;HPM_P1;HPM_P2
2023/03/20 00:01:44;;;;;;;106.50;40.70;;;;;;;7.69;78.09;100568.98;105582;1253;73726;-60
2023/03/20 00:05:07;;;;;;;103.40;37.20;;;;;;;7.67;78.40;100568.14;105490;1254;69266;-63
2023/03/20 00:08:25;;;;;;;89.60;35.80;;;;;;;7.67;78.54;100570.59;105342;1258;69657;-61
2023/03/20 00:12:04;;;;;;;;;;;;;;;;;;;;;
2023/03/20 00:15:36;;;;;;;53.90;23.30;;;;;;;7.65;78.57;100568.88;105165;1260;83411;-60
2023/03/20 00:18:45;;;;;;;48.90;23.00;;;;;;;7.69;78.43;100569.16;105207;1254;73680;-61
2023/03/20 00:22:14;;;;;;;44.40;21.40;;;;;;;7.71;78.54;100569.80;105056;1259;69109;-61
2023/03/20 00:25:53;;;;;;;41.20;21.70;;;;;;;7.71;78.87;100568.77;105219;1259;69046;-61
2023/03/20 00:28:58;;;;;;;;;;;;;;;;;;;;;
2023/03/20 00:35:34;;;;;;;;;;;;;;;;;;;;;
2023/03/20 00:39:08;;;;;;;34.70;21.90;;;;;;;7.71;79.25;100570.32;104742;1261;69448;-61
2023/03/20 00:42:22;;;;;;;31.30;19.70;;;;;;;7.72;79.21;100572.38;104712;1263;69102;-62
2023/03/20 00:45:37;;;;;;;29.90;18.20;;;;;;;7.74;79.32;100569.91;104769;1263;74251;-61
2023/03/20 00:49:06;;;;;;;;;;;;;;;;;;;;;
2023/03/20 00:52:07;;;;;;;29.90;18.30;;;;;;;7.76;79.47;100566.03;104839;1266;73893;-61
2023/03/20 00:55:25;;;;;;;;;;;;;;;;;;;;;
2023/03/20 00:58:47;;;;;;;33.70;21.00;;;;;;;7.78;79.73;100560.94;104876;1265;69212;-59
2023/03/20 01:02:00;;;;;;;37.00;21.80;;;;;;;7.78;79.81;100562.84;104808;1267;73055;-62
2023/03/20 01:05:11;;;;;;;;;;;;;;;;;;;;;
2023/03/20 01:08:46;;;;;;;45.80;23.60;;;;;;;7.78;79.87;100564.41;104943;1260;73837;-59
2023/03/20 01:12:01;;;;;;;;;;;;;;;;;;;;;
2023/03/20 01:15:21;;;;;;;36.70;22.90;;;;;;;7.81;79.67;100567.48;105449;1259;69139;-62
2023/03/20 01:18:42;;;;;;;38.40;22.00;;;;;;;7.87;79.72;100565.61;105370;1260;74179;-59
2023/03/20 01:21:51;;;;;;;31.10;20.90;;;;;;;7.91;79.68;100567.26;105360;1259;83678;-59
2023/03/20 01:25:02;;;;;;;33.20;20.20;;;;;;;7.93;79.64;100568.06;105254;1260;72960;-61
2023/03/20 01:28:32;;;;;;;31.70;20.40;;;;;;;7.95;79.86;100567.50;105207;1258;69524;-60
2023/03/20 01:31:41;;;;;;;38.20;22.30;;;;;;;7.95;80.04;100567.16;105097;1260;69176;-63
2023/03/20 01:34:51;;;;;;;36.80;23.00;;;;;;;7.94;80.25;100569.79;105161;1254;74087;-60
2023/03/20 01:38:17;;;;;;;23.00;16.40;;;;;;;7.98;80.72;100570.55;105238;1259;83420;-63
2023/03/20 01:41:54;;;;;;;22.00;13.30;;;;;;;8.22;83.09;100572.27;105136;1269;73768;-62
2023/03/20 01:45:22;;;;;;;19.90;12.50;;;;;;;8.59;83.90;100568.40;105017;1267;69370;-61
2023/03/20 01:48:44;;;;;;;17.20;11.10;;;;;;;8.78;83.66;100567.38;105062;1266;69200;-61
2023/03/20 01:52:04;;;;;;;;;;;;;;;;;;;;;
2023/03/20 01:55:07;;;;;;;11.10;9.00;;;;;;;9.14;84.46;100560.61;104894;1264;82573;-62
2023/03/20 01:58:31;;;;;;;12.60;9.30;;;;;;;9.28;84.42;100559.16;104942;1263;72917;-64
2023/03/20 02:01:47;;;;;;;;;;;;;;;;;;;;;
2023/03/20 02:04:40;;;;;;;;;;;;;;;;;;;;;
2023/03/20 02:08:01;;;;;;;12.50;8.80;;;;;;;9.62;84.67;100558.66;104558;1284;71780;-59
2023/03/20 02:11:26;;;;;;;;;;;;;;;;;;;;;
2023/03/20 02:14:36;;;;;;;12.50;9.30;;;;;;;9.71;84.68;100553.34;104479;1272;72806;-64
2023/03/20 02:17:53;;;;;;;15.30;9.10;;;;;;;9.75;84.76;100552.86;104548;1269;69272;-61
2023/03/20 02:21:32;;;;;;;10.90;8.20;;;;;;;9.80;84.48;100551.48;100877;1275;5206316;-62
2023/03/20 02:25:01;;;;;;;11.60;8.00;;;;;;;9.84;84.64;100548.04;104613;1268;73206;-60
2023/03/20 02:28:27;;;;;;;12.00;7.50;;;;;;;9.87;84.61;100549.71;104266;1270;82689;-63
2023/03/20 02:31:53;;;;;;;12.20;7.40;;;;;;;9.90;84.90;100546.81;104217;1271;73848;-58
2023/03/20 02:35:36;;;;;;;11.70;7.70;;;;;;;9.90;84.93;100546.82;103882;1274;69270;-59
2023/03/20 02:39:00;;;;;;;10.90;7.90;;;;;;;9.89;84.99;100544.92;103634;1285;69346;-61
2023/03/20 02:42:22;;;;;;;9.40;7.10;;;;;;;9.91;84.98;100541.91;104000;1280;74212;-60
2023/03/20 02:46:10;;;;;;;11.30;7.30;;;;;;;9.92;84.74;100542.55;102229;1296;600278;-60
2023/03/20 02:49:51;;;;;;;9.40;6.50;;;;;;;9.91;84.92;100542.25;104245;1273;69295;-61
2023/03/20 02:53:10;;;;;;;9.20;6.10;;;;;;;9.90;84.98;100540.52;104254;1273;69216;-61
2023/03/20 02:56:48;;;;;;;;;;;;;;;;;;;;;
2023/03/20 03:00:27;;;;;;;9.20;6.40;;;;;;;9.95;85.31;100542.45;99806;1278;5450537;-62
2023/03/20 03:03:51;;;;;;;10.30;6.90;;;;;;;9.95;85.42;100539.14;103200;1284;73144;-59
2023/03/20 03:07:03;;;;;;;8.80;7.10;;;;;;;9.94;85.34;100534.62;102199;1294;69213;-60
2023/03/20 03:10:31;;;;;;;8.70;6.40;;;;;;;9.95;85.43;100535.66;102116;1293;69380;-61
2023/03/20 03:13:35;;;;;;;;;;;;;;;;;;;;;
2023/03/20 03:16:40;;;;;;;10.00;7.30;;;;;;;9.99;85.28;100533.61;102249;1295;83731;-61
2023/03/20 03:20:03;;;;;;;8.90;6.80;;;;;;;10.00;85.38;100532.20;102879;1288;74396;-62
2023/03/20 03:23:20;;;;;;;;;;;;;;;;;;;;;
2023/03/20 03:26:48;;;;;;;10.70;8.00;;;;;;;10.00;85.41;100537.23;103127;1280;69138;-60
2023/03/20 03:29:55;;;;;;;14.30;9.40;;;;;;;10.00;85.47;100540.39;103265;1281;72072;-59
2023/03/20 03:33:06;;;;;;;14.20;10.70;;;;;;;9.97;85.43;100538.90;103323;1280;83551;-59
2023/03/20 03:37:05;;;;;;;14.60;10.20;;;;;;;9.95;85.30;100538.43;103369;1275;74560;-60
2023/03/20 03:40:23;;;;;;;11.40;8.30;;;;;;;9.99;85.28;100535.54;103214;1288;69245;-61
2023/03/20 03:43:41;;;;;;;12.60;7.60;;;;;;;9.95;84.82;100539.48;103954;1265;69335;-60
2023/03/20 03:46:39;;;;;;;;;;;;;;;;;;;;;
2023/03/20 03:50:05;;;;;;;15.10;10.20;;;;;;;9.70;84.21;100536.63;104664;1265;83568;-62
2023/03/20 03:53:36;;;;;;;18.40;11.00;;;;;;;9.62;84.37;100537.55;104491;1264;72811;-60
2023/03/20 03:56:34;;;;;;;16.80;11.20;;;;;;;9.53;84.32;100537.31;104616;1265;69128;-61
2023/03/20 04:00:03;;;;;;;14.10;10.10;;;;;;;9.48;84.38;100535.56;104496;1269;69188;-61
2023/03/20 04:03:37;;;;;;;11.30;8.20;;;;;;;9.45;84.28;100537.77;104525;1264;72986;-58
2023/03/20 04:06:52;;;;;;;12.20;9.10;;;;;;;9.44;84.74;100533.40;104514;1265;82629;-59
2023/03/20 04:10:08;;;;;;;14.70;9.10;;;;;;;9.38;84.38;100540.21;104478;1265;72642;-58
2023/03/20 04:13:32;;;;;;;11.30;7.50;;;;;;;9.34;85.14;100535.98;104761;1264;69300;-58
2023/03/20 04:16:54;;;;;;;9.50;7.00;;;;;;;9.37;85.62;100536.92;105125;1256;69200;-59
2023/03/20 04:20:11;;;;;;;10.50;7.30;;;;;;;9.41;85.89;100535.94;105129;1261;72937;-59
2023/03/20 04:23:22;;;;;;;9.20;6.40;;;;;;;9.47;85.88;100537.34;105139;1256;82832;-58
2023/03/20 04:26:58;;;;;;;10.80;6.30;;;;;;;9.48;86.03;100542.02;105335;1256;73906;-62
2023/03/20 04:30:09;;;;;;;9.00;6.50;;;;;;;9.50;86.24;100547.01;105227;1255;69185;-59
2023/03/20 04:33:11;;;;;;;;;;;;;;;9.53;86.55;100546.56;105161;1257;69106;-60
2023/03/20 04:37:00;;;;;;;;;;;;;;;;;;;;;
2023/03/20 04:40:22;;;;;;;8.20;5.30;;;;;;;9.53;86.75;100546.21;105095;1256;83441;-63
2023/03/20 04:43:38;;;;;;;11.60;6.60;;;;;;;9.52;86.93;100544.33;105151;1259;74052;-61
2023/03/20 04:47:19;;;;;;;11.00;6.50;;;;;;;9.50;87.00;100542.98;105136;1257;69177;-58
2023/03/20 04:50:45;;;;;;;11.00;7.60;;;;;;;9.50;86.80;100545.26;105171;1259;69219;-60
2023/03/20 04:53:54;;;;;;;12.00;7.80;;;;;;;9.48;86.58;100543.76;105121;1257;73343;-59
2023/03/20 04:57:18;;;;;;;;;;;;;;;;;;;;;
2023/03/20 05:00:43;;;;;;;8.80;6.20;;;;;;;9.41;86.60;100545.00;105261;1256;73802;-59
2023/03/20 05:04:10;;;;;;;10.40;7.20;;;;;;;9.39;86.86;100547.17;105199;1259;69170;-59
2023/03/20 05:07:20;;;;;;;11.20;6.30;;;;;;;9.32;86.93;100548.75;105195;1257;69197;-57
2023/03/20 05:10:49;;;;;;;10.50;7.60;;;;;;;9.29;87.17;100548.69;105376;1259;72261;-60
2023/03/20 05:14:11;;;;;;;9.30;6.60;;;;;;;9.29;87.56;100543.63;105255;1259;83750;-58
2023/03/20 05:17:40;;;;;;;10.70;6.40;;;;;;;9.28;87.30;100544.16;105356;1256;73270;-60
2023/03/20 05:21:25;;;;;;;;;;;;;;;;;;;;;
2023/03/20 05:25:01;;;;;;;;;;;;;;;;;;;;;
2023/03/20 05:28:36;;;;;;;10.20;6.60;;;;;;;9.26;87.84;100560.09;105442;1256;73250;-60
2023/03/20 05:32:11;;;;;;;10.30;6.90;;;;;;;9.29;88.18;100562.96;104894;1262;82719;-57
2023/03/20 05:35:47;;;;;;;10.90;7.40;;;;;;;9.29;88.25;100559.65;104460;1271;73420;-61
2023/03/20 05:39:04;;;;;;;9.30;6.60;;;;;;;9.32;88.29;100557.33;104343;1270;69230;-62
2023/03/20 05:42:40;;;;;;;11.10;7.70;;;;;;;9.34;88.26;100559.86;104403;1270;69528;-58
2023/03/20 05:46:16;;;;;;;11.20;7.00;;;;;;;9.35;88.02;100562.95;104490;1268;73011;-58
2023/03/20 05:49:46;;;;;;;10.60;6.40;;;;;;;9.36;88.04;100567.11;103888;1274;83689;-60
2023/03/20 05:53:12;;;;;;;9.00;6.90;;;;;;;9.41;88.37;100563.52;103929;1278;73683;-51
2023/03/20 05:56:32;;;;;;;68.50;36.40;;;;;;;9.45;88.24;100565.09;102078;1295;600369;-53
2023/03/20 05:59:14;;;;;;;32.40;20.60;;;;;;;9.43;88.30;100562.05;104684;1267;69913;-54
2023/03/20 06:02:18;;;;;;;31.30;17.30;;;;;;;9.44;88.51;100567.25;104278;1276;69187;-54
2023/03/20 06:04:56;;;;;;;26.90;13.10;;;;;;;9.43;88.50;100567.46;104821;1266;72274;-51
2023/03/20 06:07:33;;;;;;;13.50;8.70;;;;;;;9.44;88.47;100571.62;104797;1270;83360;-54
2023/03/20 06:10:10;;;;;;;11.10;7.60;;;;;;;9.46;88.29;100568.57;102222;1270;3350385;-55
2023/03/20 06:12:44;;;;;;;11.60;7.80;;;;;;;9.47;88.21;100566.63;104796;1264;69145;-56
2023/03/20 06:15:16;;;;;;;16.20;8.50;;;;;;;9.48;88.33;100570.78;104792;1269;69244;-55
2023/03/20 06:18:05;;;;;;;11.30;7.60;;;;;;;9.50;88.14;100576.30;104809;1268;72512;-56
2023/03/20 06:20:42;;;;;;;9.80;7.30;;;;;;;9.51;88.20;100575.23;105020;1264;83783;-51
2023/03/20 06:23:24;;;;;;;10.00;7.30;;;;;;;9.51;88.50;100577.15;104768;1263;73955;-57
2023/03/20 06:25:56;;;;;;;10.30;7.30;;;;;;;9.51;88.45;100576.63;104821;1269;69175;-55
2023/03/20 06:28:29;;;;;;;10.10;7.60;;;;;;;9.53;88.67;100579.02;104772;1267;69259;-56
2023/03/20 06:31:11;;;;;;;10.20;6.70;;;;;;;9.55;88.72;100581.21;104775;1267;72239;-54
2023/03/20 06:33:46;;;;;;;10.40;6.80;;;;;;;9.60;88.47;100587.70;104902;1264;83292;-56
2023/03/20 06:36:22;;;;;;;9.60;6.30;;;;;;;9.64;88.59;100590.90;104764;1267;73819;-55
2023/03/20 06:38:56;;;;;;;10.20;7.10;;;;;;;9.68;88.60;100594.09;104881;1268;69182;-51
2023/03/20 06:41:35;;;;;;;10.70;7.80;;;;;;;9.71;88.52;100592.77;104801;1263;69438;-52
2023/03/20 06:44:17;;;;;;;10.00;7.20;;;;;;;9.68;88.48;100592.17;105285;1257;73449;-51
2023/03/20 06:47:08;;;;;;;10.70;7.80;;;;;;;9.70;88.71;100593.16;105236;1260;83775;-57
2023/03/20 06:49:39;;;;;;;12.20;8.50;;;;;;;9.74;88.93;100597.05;105506;1254;74318;-56
2023/03/20 06:52:15;;;;;;;11.10;7.90;;;;;;;9.79;88.94;100596.19;105405;1260;69202;-57
2023/03/20 06:54:50;;;;;;;9.30;7.30;;;;;;;9.86;88.88;100595.45;105421;1256;69211;-56
2023/03/20 06:57:24;;;;;;;9.00;6.70;;;;;;;9.92;88.81;100596.34;105425;1256;73367;-54
2023/03/20 07:00:02;;;;;;;11.20;7.70;;;;;;;9.96;88.85;100593.56;105332;1258;82495;-55
2023/03/20 07:02:35;;;;;;;21.10;12.10;;;;;;;10.02;88.96;100591.64;105455;1260;73977;-56
2023/03/20 07:05:12;;;;;;;26.50;13.40;;;;;;;10.08;88.96;100598.44;105314;1260;69125;-55
2023/03/20 07:07:45;;;;;;;22.20;11.50;;;;;;;10.11;89.04;100597.83;105292;1260;69140;-55
2023/03/20 07:10:18;;;;;;;16.10;9.90;;;;;;;10.14;88.93;100599.11;105405;1259;72343;-54
2023/03/20 07:12:53;;;;;;;13.00;9.10;;;;;;;10.16;88.86;100604.98;105386;1259;82522;-55
2023/03/20 07:15:26;;;;;;;14.60;9.50;;;;;;;10.15;88.73;100606.42;105393;1257;74272;-55
2023/03/20 07:17:58;;;;;;;12.60;8.50;;;;;;;10.17;88.82;100611.24;105490;1257;69093;-56
2023/03/20 07:20:30;;;;;;;12.70;8.40;;;;;;;10.21;88.70;100612.34;105402;1259;69141;-55
2023/03/20 07:23:01;;;;;;;11.50;8.30;;;;;;;10.24;88.48;100609.63;105380;1260;72314;-53
2023/03/20 07:25:33;;;;;;;11.60;7.80;;;;;;;10.21;88.21;100616.88;105342;1256;84352;-55
2023/03/20 07:28:12;;;;;;;10.10;7.60;;;;;;;10.17;88.11;100619.79;105305;1257;72720;-54
2023/03/20 07:30:49;;;;;;;12.10;8.20;;;;;;;10.14;88.13;100623.73;105386;1260;69291;-57
2023/03/20 07:33:31;;;;;;;10.00;8.30;;;;;;;10.12;88.27;100625.90;105660;1256;69089;-56
2023/03/20 07:36:06;;;;;;;11.20;8.40;;;;;;;10.12;88.47;100625.23;105603;1258;72352;-54
2023/03/20 07:38:38;;;;;;;10.60;8.10;;;;;;;10.09;88.58;100629.48;105460;1258;83362;-53
2023/03/20 07:41:14;;;;;;;11.30;8.00;;;;;;;10.08;88.76;100631.09;105510;1257;73489;-55
2023/03/20 07:43:56;;;;;;;20.60;12.90;;;;;;;10.12;88.53;100630.64;105254;1257;69298;-53
2023/03/20 07:46:39;;;;;;;14.00;9.50;;;;;;;10.14;88.51;100631.77;105464;1256;69147;-55
2023/03/20 07:49:14;;;;;;;12.40;8.70;;;;;;;10.18;88.80;100631.46;105244;1259;72319;-55
2023/03/20 07:51:46;;;;;;;14.40;9.60;;;;;;;10.23;88.66;100634.46;105340;1259;83375;-53
2023/03/20 07:54:24;;;;;;;14.00;10.40;;;;;;;10.23;88.71;100634.27;105418;1259;73946;-57
2023/03/20 07:56:58;;;;;;;13.60;10.60;;;;;;;10.21;88.77;100636.77;105381;1260;69228;-56
2023/03/20 07:59:32;;;;;;;15.40;11.00;;;;;;;10.20;88.73;100633.86;105354;1257;69185;-59
2023/03/20 08:02:24;;;;;;;15.60;10.40;;;;;;;10.22;88.50;100632.55;105379;1256;72229;-56
2023/03/20 08:05:05;;;;;;;13.40;9.00;;;;;;;10.21;88.40;100629.64;105382;1259;83855;-59
2023/03/20 08:08:04;;;;;;;16.00;9.20;;;;;;;10.22;88.53;100631.86;105310;1257;73608;-61
2023/03/20 08:10:47;;;;;;;12.60;10.10;;;;;;;10.26;88.55;100629.64;105344;1257;69157;-59
2023/03/20 08:13:33;;;;;;;13.60;10.20;;;;;;;10.33;88.77;100625.62;105329;1255;69513;-61
2023/03/20 08:16:24;;;;;;;13.60;10.70;;;;;;;10.38;88.80;100620.20;105398;1257;73206;-58
2023/03/20 08:19:01;;;;;;;16.30;12.40;;;;;;;10.44;88.96;100620.36;105394;1259;83435;-59
2023/03/20 08:21:48;;;;;;;16.10;11.10;;;;;;;10.55;89.01;100619.45;105364;1257;73702;-59
2023/03/20 08:24:38;;;;;;;;;;;;;;;;;;;;;
2023/03/20 08:27:30;;;;;;;12.30;9.30;;;;;;;10.85;88.77;100608.81;105274;1255;69211;-60
2023/03/20 08:30:10;;;;;;;13.90;9.80;;;;;;;10.98;88.51;100609.60;105385;1256;71903;-61
2023/03/20 08:32:46;;;;;;;10.10;8.10;;;;;;;11.12;88.53;100610.48;105397;1259;83570;-61
2023/03/20 08:35:27;;;;;;;11.30;8.90;;;;;;;11.28;88.42;100608.70;105378;1260;73825;-60
2023/03/20 08:38:11;;;;;;;16.20;10.30;;;;;;;11.42;87.90;100611.14;105332;1257;69197;-58
2023/03/20 08:40:49;;;;;;;13.20;9.90;;;;;;;11.61;88.00;100614.47;105402;1260;69221;-60
2023/03/20 08:43:26;;;;;;;13.30;10.00;;;;;;;11.83;87.69;100608.93;105374;1259;73245;-61
2023/03/20 08:45:58;;;;;;;19.30;15.20;;;;;;;11.99;87.63;100611.98;105366;1257;83399;-62
2023/03/20 08:48:42;;;;;;;20.80;14.20;;;;;;;12.16;87.51;100615.52;105375;1260;72751;-62
2023/03/20 08:51:20;;;;;;;13.00;8.70;;;;;;;12.39;87.13;100615.14;105359;1256;69230;-61
2023/03/20 08:53:52;;;;;;;17.80;11.50;;;;;;;12.61;86.78;100618.39;105389;1259;69202;-60
2023/03/20 08:56:25;;;;;;;10.40;8.20;;;;;;;12.82;86.55;100618.06;105390;1260;72655;-61
2023/03/20 08:59:04;;;;;;;11.40;8.30;;;;;;;13.03;85.93;100618.70;105357;1259;83428;-64
2023/03/20 09:01:35;;;;;;;14.70;11.40;;;;;;;13.16;85.17;100618.65;105387;1257;73628;-61
2023/03/20 09:04:20;;;;;;;13.80;10.80;;;;;;;13.30;84.97;100622.61;105418;1257;69127;-61
2023/03/20 09:07:02;;;;;;;;;;;;;;;;;;;;;
2023/03/20 09:09:40;;;;;;;11.60;9.50;;;;;;;13.59;84.59;100621.70;105365;1259;72708;-61
2023/03/20 09:12:14;;;;;;;16.50;12.10;;;;;;;13.69;84.17;100625.59;105324;1257;83394;-61
2023/03/20 09:14:46;;;;;;;15.00;11.50;;;;;;;13.70;83.60;100625.41;105328;1257;73224;-62
2023/03/20 09:17:17;;;;;;;12.10;8.40;;;;;;;13.64;83.03;100625.50;105326;1257;69137;-60
2023/03/20 09:19:48;;;;;;;12.20;7.90;;;;;;;13.56;82.58;100624.97;105238;1259;69541;-60
2023/03/20 09:22:20;;;;;;;9.40;7.70;;;;;;;13.50;82.31;100627.54;105343;1258;72359;-60
2023/03/20 09:24:57;;;;;;;10.70;8.70;;;;;;;13.48;82.48;100627.46;105168;1259;83205;-65
2023/03/20 09:27:31;;;;;;;9.90;8.30;;;;;;;13.40;82.29;100632.39;105340;1259;73397;-61
2023/03/20 09:30:06;;;;;;;14.20;10.90;;;;;;;13.37;82.48;100628.98;105355;1257;69208;-61
2023/03/20 09:32:38;;;;;;;11.20;9.20;;;;;;;13.41;82.54;100626.88;105366;1259;69074;-59
2023/03/20 09:35:16;;;;;;;12.20;9.80;;;;;;;13.47;82.66;100628.01;105389;1259;73246;-61
2023/03/20 09:37:47;;;;;;;11.20;9.60;;;;;;;13.51;82.43;100624.14;105365;1258;83330;-63
2023/03/20 09:40:27;;;;;;;12.40;9.90;;;;;;;13.53;81.98;100625.27;105321;1259;72807;-63
2023/03/20 09:43:19;;;;;;;10.70;7.80;;;;;;;13.59;81.90;100621.67;105312;1259;69093;-61
2023/03/20 09:45:58;;;;;;;10.30;8.00;;;;;;;13.70;81.57;100622.07;105357;1259;69185;-61
2023/03/20 09:48:50;;;;;;;7.80;6.30;;;;;;;13.80;81.33;100621.92;105252;1259;71518;-61
2023/03/20 09:52:04;;;;;;;7.90;7.10;;;;;;;13.98;81.06;100622.85;105100;1257;83527;-60
2023/03/20 09:54:38;;;;;;;9.00;8.10;;;;;;;14.19;80.79;100620.61;105264;1256;73550;-61
2023/03/20 09:57:26;;;;;;;9.90;8.20;;;;;;;14.46;80.46;100622.27;105283;1255;69107;-61
2023/03/20 10:00:03;;;;;;;10.00;8.00;;;;;;;14.71;80.36;100617.90;105301;1257;69221;-59
2023/03/20 10:03:00;;;;;;;10.40;8.10;;;;;;;14.82;79.72;100617.85;105397;1259;74863;-61
2023/03/20 10:05:36;;;;;;;9.10;8.10;;;;;;;14.98;79.05;100616.34;105379;1260;83364;-60
2023/03/20 10:08:15;;;;;;;9.30;8.20;;;;;;;15.17;78.71;100613.22;105387;1257;73859;-59
2023/03/20 10:10:54;;;;;;;11.90;9.20;;;;;;;15.28;78.52;100612.80;105183;1257;69189;-60
2023/03/20 10:14:01;;;;;;;9.00;8.10;;;;;;;15.31;77.85;100611.61;105340;1257;69080;-60
2023/03/20 10:16:51;;;;;;;11.30;8.60;;;;;;;15.20;77.21;100612.52;105259;1256;73272;-59
2023/03/20 10:19:31;;;;;;;9.50;8.50;;;;;;;15.21;77.13;100607.21;105343;1257;82430;-59
2023/03/20 10:22:28;;;;;;;10.00;8.40;;;;;;;15.30;76.91;100607.08;105381;1257;73651;-60
2023/03/20 10:25:01;;;;;;;9.30;8.30;;;;;;;15.59;77.17;100608.88;105191;1256;69130;-61
2023/03/20 10:27:42;;;;;;;11.30;9.10;;;;;;;15.94;77.09;100607.47;105356;1259;69202;-60
2023/03/20 10:30:37;;;;;;;10.40;8.80;;;;;;;16.40;76.66;100606.45;105397;1259;74010;-62
2023/03/20 10:33:35;;;;;;;12.60;9.00;;;;;;;16.82;75.67;100609.09;105394;1259;83382;-59
2023/03/20 10:36:27;;;;;;;9.90;7.60;;;;;;;16.99;74.74;100609.16;105408;1257;73592;-60
2023/03/20 10:39:34;;;;;;;10.80;8.40;;;;;;;16.89;74.22;100608.16;105307;1257;69122;-61
2023/03/20 10:42:05;;;;;;;9.30;7.80;;;;;;;16.76;74.06;100615.80;105275;1259;69276;-61
2023/03/20 10:44:41;;;;;;;12.70;11.30;;;;;;;16.67;73.54;100614.36;105405;1256;74064;-61
2023/03/20 10:47:13;;;;;;;13.70;11.40;;;;;;;16.45;73.18;100617.43;105272;1260;83408;-60
2023/03/20 10:50:17;;;;;;;20.70;14.90;;;;;;;16.26;73.25;100611.81;105235;1257;73914;-60
2023/03/20 10:52:47;;;;;;;22.00;16.50;;;;;;;16.04;73.01;100612.04;105304;1255;69282;-61
2023/03/20 10:55:20;;;;;;;12.40;11.10;;;;;;;15.87;73.18;100610.17;105291;1257;69301;-60
2023/03/20 10:58:17;;;;;;;11.30;10.20;;;;;;;15.70;72.78;100609.86;105415;1259;73237;-60
2023/03/20 11:00:49;;;;;;;11.50;10.30;;;;;;;15.51;72.67;100614.56;105328;1257;84009;-60
2023/03/20 11:03:24;;;;;;;12.10;10.80;;;;;;;15.44;72.66;100609.69;105420;1259;74389;-59
2023/03/20 11:06:20;;;;;;;12.00;10.90;;;;;;;15.48;73.11;100608.23;105337;1257;69175;-62
2023/03/20 11:08:51;;;;;;;11.80;10.60;;;;;;;15.67;73.03;100612.31;105337;1259;69141;-61
2023/03/20 11:11:27;;;;;;;12.30;10.50;;;;;;;15.61;72.73;100608.40;105390;1257;74339;-58
2023/03/20 11:13:57;;;;;;;12.00;10.70;;;;;;;15.50;72.43;100604.95;105414;1259;83503;-60
2023/03/20 11:16:35;;;;;;;11.70;10.60;;;;;;;15.44;72.58;100601.75;105207;1257;73896;-59
2023/03/20 11:19:06;;;;;;;11.10;10.00;;;;;;;15.55;72.72;100602.20;105194;1255;69080;-61
2023/03/20 11:21:45;;;;;;;12.20;9.90;;;;;;;15.70;73.02;100598.23;105405;1257;69180;-60
2023/03/20 11:24:25;;;;;;;13.80;10.90;;;;;;;16.04;73.06;100597.08;105265;1258;73056;-61
2023/03/20 11:26:54;;;;;;;13.10;11.60;;;;;;;16.34;72.55;100601.15;105303;1257;82419;-59
2023/03/20 11:29:25;;;;;;;13.50;11.10;;;;;;;16.48;72.22;100599.80;105162;1259;73257;-62
2023/03/20 11:31:54;;;;;;;15.70;13.50;;;;;;;16.64;72.20;100599.23;105177;1257;69262;-61
2023/03/20 11:34:26;;;;;;;13.10;10.80;;;;;;;16.67;71.67;100600.46;105210;1257;69190;-61
2023/03/20 11:36:58;;;;;;;11.60;10.40;;;;;;;16.61;71.27;100599.92;105201;1257;74084;-61
2023/03/20 11:39:38;;;;;;;11.20;10.00;;;;;;;16.53;70.67;100601.95;105214;1257;83477;-59
2023/03/20 11:42:22;;;;;;;10.90;9.80;;;;;;;16.61;70.67;100597.96;105175;1257;73643;-60
2023/03/20 11:44:59;;;;;;;12.40;11.10;;;;;;;16.79;70.78;100594.70;105195;1257;69017;-61
2023/03/20 11:47:32;;;;;;;11.10;10.10;;;;;;;16.75;70.47;100595.25;105284;1256;69185;-60
2023/03/20 11:50:04;;;;;;;10.50;9.50;;;;;;;16.63;69.93;100589.41;105072;1257;73799;-59
2023/03/20 11:52:36;;;;;;;11.40;10.00;;;;;;;16.59;70.07;100586.82;105209;1257;83199;-62
2023/03/20 11:55:23;;;;;;;9.70;8.80;;;;;;;16.45;69.83;100588.17;105186;1257;73725;-61
2023/03/20 11:57:58;;;;;;;11.40;10.10;;;;;;;16.27;69.70;100587.42;105266;1256;69219;-58
2023/03/20 12:00:38;;;;;;;11.10;10.00;;;;;;;16.04;69.50;100581.86;105379;1257;69194;-58
2023/03/20 12:03:32;;;;;;;11.30;10.10;;;;;;;15.89;69.67;100580.63;105316;1257;73958;-60
2023/03/20 12:06:01;;;;;;;11.30;10.10;;;;;;;15.80;69.93;100579.34;105405;1259;83131;-58
2023/03/20 12:08:31;;;;;;;10.50;9.30;;;;;;;15.91;70.14;100570.66;105363;1257;72211;-59
2023/03/20 12:11:06;;;;;;;11.70;10.20;;;;;;;15.98;70.33;100566.91;105317;1255;70475;-60
2023/03/20 12:13:42;;;;;;;12.00;10.10;;;;;;;16.17;70.44;100562.95;105396;1255;69208;-60
2023/03/20 12:16:13;;;;;;;11.90;10.40;;;;;;;16.41;70.07;100558.45;105379;1257;74074;-61
2023/03/20 12:18:54;;;;;;;11.40;10.20;;;;;;;16.47;70.05;100560.33;105379;1259;83411;-58
2023/03/20 12:21:39;;;;;;;11.50;10.20;;;;;;;16.57;69.69;100557.86;105379;1255;74013;-60
2023/03/20 12:24:29;;;;;;;12.20;10.40;;;;;;;16.64;69.23;100557.95;105340;1259;69219;-58
2023/03/20 12:27:00;;;;;;;14.40;11.10;;;;;;;16.60;68.55;100556.94;105375;1259;69179;-59
2023/03/20 12:29:34;;;;;;;12.90;10.70;;;;;;;16.51;68.44;100555.86;105430;1257;74225;-61
2023/03/20 12:32:09;;;;;;;11.00;9.30;;;;;;;16.44;68.13;100556.44;105406;1259;83655;-60
2023/03/20 12:34:49;;;;;;;12.60;9.30;;;;;;;16.41;68.06;100561.96;105206;1257;73869;-58
2023/03/20 12:37:18;;;;;;;11.20;10.00;;;;;;;16.38;67.98;100564.27;105361;1255;69167;-59
2023/03/20 12:39:53;;;;;;;17.00;10.90;;;;;;;16.39;68.08;100575.49;105345;1259;69173;-60
2023/03/20 12:42:51;;;;;;;14.60;6.90;;;;;;;16.13;66.26;100577.52;105298;1259;73366;-60
2023/03/20 12:45:22;;;;;;;7.90;5.50;;;;;;;15.62;64.88;100572.78;105436;1257;83420;-58
2023/03/20 12:48:28;;;;;;;9.60;6.20;;;;;;;15.38;65.09;100568.42;105356;1256;73358;-59
2023/03/20 12:51:20;;;;;;;12.40;7.50;;;;;;;15.29;65.60;100568.23;105255;1259;69240;-60
2023/03/20 12:54:02;;;;;;;13.20;7.60;;;;;;;15.35;66.13;100566.65;105103;1259;69188;-59
2023/03/20 12:56:39;;;;;;;11.80;6.40;;;;;;;15.62;66.20;100561.47;105370;1257;74215;-60
2023/03/20 12:59:13;;;;;;;5.90;4.10;;;;;;;15.74;66.04;100566.48;105308;1259;83259;-58
2023/03/20 13:01:56;;;;;;;7.90;6.00;;;;;;;15.81;65.85;100565.21;105397;1257;72671;-58
2023/03/20 13:04:42;;;;;;;8.10;6.10;;;;;;;15.84;65.98;100560.80;105267;1259;69131;-60
2023/03/20 13:07:23;;;;;;;8.10;6.70;;;;;;;15.89;66.15;100564.98;105329;1257;69199;-58
2023/03/20 13:10:01;;;;;;;8.40;7.50;;;;;;;15.87;66.09;100563.64;105380;1258;74252;-60
2023/03/20 13:12:56;;;;;;;8.70;7.80;;;;;;;15.76;65.92;100562.13;105172;1257;83824;-62
2023/03/20 13:15:39;;;;;;;10.50;9.40;;;;;;;15.63;66.10;100560.19;105231;1257;73892;-60
2023/03/20 13:18:21;;;;;;;11.40;10.20;;;;;;;15.70;66.59;100558.57;105331;1257;69137;-60
2023/03/20 13:20:52;;;;;;;11.50;10.20;;;;;;;16.23;67.31;100558.73;105196;1259;69240;-58
2023/03/20 13:23:30;;;;;;;10.70;9.70;;;;;;;16.63;67.14;100557.30;105374;1257;74210;-59
2023/03/20 13:26:04;;;;;;;12.30;10.80;;;;;;;16.75;66.60;100555.50;105337;1257;83816;-62
2023/03/20 13:28:45;;;;;;;14.40;11.20;;;;;;;16.88;66.36;100549.61;105251;1255;73763;-60
2023/03/20 13:31:37;;;;;;;10.90;9.80;;;;;;;16.72;65.75;100550.75;105341;1256;69536;-60
2023/03/20 13:34:24;;;;;;;11.20;10.10;;;;;;;16.27;65.72;100556.57;105326;1259;69217;-58
2023/03/20 13:37:05;;;;;;;11.00;9.90;;;;;;;15.80;65.53;100558.74;105378;1258;74231;-58
2023/03/20 13:40:24;;;;;;;9.00;8.00;;;;;;;15.24;66.01;100558.45;105349;1259;83479;-58
2023/03/20 13:43:15;;;;;;;3.20;2.90;;;;;;;14.76;66.40;100564.68;105337;1258;73604;-59
2023/03/20 13:45:47;;;;;;;2.30;1.70;;;;;;;14.25;66.66;100572.67;105384;1257;69097;-58
2023/03/20 13:48:27;;;;;;;1.70;1.40;;;;;;;13.79;67.22;100574.05;105161;1257;69076;-62
2023/03/20 13:51:19;;;;;;;;;;;;;;;13.41;67.93;100571.58;105413;1259;72622;-58
2023/03/20 13:54:21;;;;;;;11.70;4.70;;;;;;;13.17;69.15;100574.43;104737;1266;83550;-58
2023/03/20 13:57:43;;;;;;;6.10;2.00;;;;;;;12.94;70.19;100580.14;104461;1269;73795;-62